Time;durP1;ratioP1;P1;durP2;ratioP2;P2;SDS_P1;SDS_P2;PMS_P1;PMS_P2;Temp;Humidity;BMP_temperature;BMP_pressure;BME280_temperature;BME280_humidity;BME280_pressure;Samples;Min_cycle;Max_cycle;Signal;HPM_P1;HPM_P2
2022/09/24 00:01:17;;;;;;;20.08;10.48;;;;;;;12.75;100.00;101223.28;4953508;28;20436;-69
2022/09/24 00:03:49;;;;;;;21.05;10.55;;;;;;;12.74;100.00;101218.13;4953878;29;20102;-69
2022/09/24 00:06:17;;;;;;;18.63;10.20;;;;;;;12.74;100.00;101218.13;4953699;29;20023;-69
2022/09/24 00:08:44;;;;;;;21.77;11.45;;;;;;;12.73;100.00;101225.31;4953328;29;20118;-69
2022/09/24 00:11:11;;;;;;;17.27;9.25;;;;;;;12.71;100.00;101219.38;4953692;28;20134;-69
2022/09/24 00:13:37;;;;;;;19.65;10.52;;;;;;;12.62;100.00;101205.31;4953691;29;20035;-69
2022/09/24 00:16:06;;;;;;;21.20;11.35;;;;;;;12.64;100.00;101210.47;4936452;29;20044;-69
2022/09/24 00:18:32;;;;;;;20.40;10.90;;;;;;;12.63;100.00;101208.84;4953597;29;20106;-69
2022/09/24 00:20:58;;;;;;;21.08;11.38;;;;;;;12.65;100.00;101214.78;4953317;29;20059;-69
2022/09/24 00:23:23;;;;;;;19.17;11.52;;;;;;;12.64;100.00;101213.97;4936283;29;20494;-69
2022/09/24 00:28:32;;;;;;;21.10;11.98;;;;;;;12.60;100.00;101210.06;4953701;28;20541;-69
2022/09/24 00:31:02;;;;;;;22.27;10.50;;;;;;;12.60;100.00;101206.53;4953211;29;20042;-69
2022/09/24 00:33:27;;;;;;;20.98;10.85;;;;;;;12.58;100.00;101204.09;4935905;29;20133;-69
2022/09/24 00:35:59;;;;;;;20.27;10.50;;;;;;;12.55;100.00;101207.16;4953178;29;20118;-69
2022/09/24 00:38:25;;;;;;;18.20;10.10;;;;;;;12.57;100.00;101212.31;4952996;29;20441;-69
2022/09/24 00:40:50;;;;;;;18.02;9.23;;;;;;;12.53;100.00;101193.16;4953305;29;20043;-69
2022/09/24 00:43:27;;;;;;;20.60;10.52;;;;;;;12.54;100.00;101200.16;4935840;29;20922;-69
2022/09/24 00:45:59;;;;;;;21.85;12.55;;;;;;;12.56;100.00;101195.44;4952927;29;20430;-69
2022/09/24 00:48:24;;;;;;;20.75;11.50;;;;;;;12.55;100.00;101199.16;4952796;28;20062;-70
2022/09/24 00:50:50;;;;;;;18.90;9.48;;;;;;;12.56;100.00;101194.63;4952973;29;20074;-69
2022/09/24 00:53:21;;;;;;;17.90;9.63;;;;;;;12.53;100.00;101195.84;4953133;29;20038;-69
2022/09/24 00:55:50;;;;;;;18.70;9.43;;;;;;;12.49;100.00;101186.56;4934607;29;20441;-69
2022/09/24 00:58:16;;;;;;;19.92;10.52;;;;;;;12.51;100.00;101184.50;4953111;29;20548;-69
2022/09/24 01:00:43;;;;;;;21.27;11.20;;;;;;;12.49;100.00;101178.53;4952775;28;20082;-69
2022/09/24 01:03:19;;;;;;;20.55;11.05;;;;;;;12.53;100.00;101181.63;4952269;29;20121;-69
2022/09/24 01:05:45;;;;;;;21.52;10.73;;;;;;;12.52;100.00;101182.66;4952549;29;20071;-70
2022/09/24 01:08:16;;;;;;;22.08;11.60;;;;;;;12.49;100.00;101171.31;4934102;29;20071;-69
2022/09/24 01:11:01;;;;;;;19.10;9.38;;;;;;;12.54;100.00;101170.72;4933964;29;20063;-70
2022/09/24 01:14:04;;;;;;;20.45;9.05;;;;;;;12.56;100.00;101170.53;4952611;29;20131;-69
2022/09/24 01:16:48;;;;;;;19.80;9.90;;;;;;;12.56;100.00;101167.84;4952695;29;20483;-69
2022/09/24 01:19:32;;;;;;;21.00;9.30;;;;;;;12.55;100.00;101164.38;4952261;28;20019;-69
2022/09/24 01:22:06;;;;;;;17.23;9.43;;;;;;;12.57;100.00;101161.47;4952464;29;20035;-69
2022/09/24 01:25:14;;;;;;;18.30;8.95;;;;;;;12.52;100.00;101156.72;4952353;29;20023;-69
2022/09/24 01:27:55;;;;;;;18.45;9.30;;;;;;;12.55;100.00;101155.47;4941589;28;20054;-69
2022/09/24 01:30:21;;;;;;;16.80;8.75;;;;;;;12.55;100.00;101156.34;4952333;28;20045;-69
2022/09/24 01:32:52;;;;;;;21.05;10.55;;;;;;;12.55;100.00;101153.66;4952178;29;20027;-69
2022/09/24 01:35:23;;;;;;;18.67;10.10;;;;;;;12.54;100.00;101146.63;4952533;29;20027;-69
2022/09/24 01:38:29;;;;;;;18.58;9.90;;;;;;;12.56;100.00;101149.13;4951223;28;20497;-69
2022/09/24 01:40:58;;;;;;;18.80;8.55;;;;;;;12.54;100.00;101143.16;4951495;28;20063;-69
2022/09/24 01:43:26;;;;;;;18.25;9.30;;;;;;;12.51;100.00;101144.38;4951473;29;20037;-69
2022/09/24 01:45:57;;;;;;;21.27;9.45;;;;;;;12.49;100.00;101141.88;4951814;29;20035;-69
2022/09/24 01:48:23;;;;;;;20.33;9.80;;;;;;;12.51;100.00;101144.38;4951845;29;20031;-69
2022/09/24 01:51:08;;;;;;;18.55;8.73;;;;;;;12.51;100.00;101139.03;4951911;29;20054;-69
2022/09/24 01:53:56;;;;;;;19.75;10.65;;;;;;;12.52;100.00;101135.31;4951919;29;20086;-69
2022/09/24 01:56:31;;;;;;;17.20;9.43;;;;;;;12.53;100.00;101138.84;4951888;29;20031;-69
2022/09/24 01:59:17;;;;;;;18.15;9.65;;;;;;;12.49;100.00;101127.69;4951728;29;20479;-66
2022/09/24 02:02:13;;;;;;;19.38;9.95;;;;;;;12.53;100.00;101134.31;4951691;28;20039;-66
2022/09/24 02:04:43;;;;;;;17.70;8.05;;;;;;;12.49;100.00;101125.84;4933065;29;20121;-66
2022/09/24 02:07:41;;;;;;;18.10;9.18;;;;;;;12.52;100.00;101129.13;4951653;28;20031;-65
2022/09/24 02:10:14;;;;;;;20.10;9.82;;;;;;;12.46;100.00;101120.91;4936625;29;20043;-66
2022/09/24 02:12:43;;;;;;;16.83;8.75;;;;;;;12.44;100.00;101119.44;4951573;28;20031;-66
2022/09/24 02:15:21;;;;;;;19.90;9.73;;;;;;;12.44;100.00;101112.28;4951474;29;20537;-66
2022/09/24 02:17:52;;;;;;;21.77;11.55;;;;;;;12.45;100.00;101116.59;4951424;29;20046;-66
2022/09/24 02:20:20;;;;;;;17.88;8.85;;;;;;;12.47;100.00;101127.06;4951387;28;20435;-65
2022/09/24 02:22:48;;;;;;;17.65;9.35;;;;;;;12.45;100.00;101116.59;4951367;28;20027;-66
2022/09/24 02:25:19;;;;;;;19.13;9.70;;;;;;;12.45;100.00;101121.13;4951162;28;20483;-66
2022/09/24 02:27:44;;;;;;;18.17;8.87;;;;;;;12.44;100.00;101117.63;4951185;29;21002;-66
2022/09/24 02:30:10;;;;;;;18.70;10.23;;;;;;;12.42;100.00;101116.19;4937957;29;20027;-66
2022/09/24 02:32:39;;;;;;;17.98;9.60;;;;;;;12.43;100.00;101120.50;4932981;29;20039;-65
2022/09/24 02:35:08;;;;;;;20.02;10.38;;;;;;;12.42;100.00;101119.66;4932927;29;20038;-66
2022/09/24 02:37:39;;;;;;;20.05;10.27;;;;;;;12.42;100.00;101117.00;4932678;29;20067;-66
2022/09/24 02:40:08;;;;;;;19.17;10.38;;;;;;;12.40;100.00;101111.03;4951218;29;20050;-66
2022/09/24 02:42:33;;;;;;;19.63;10.02;;;;;;;12.40;100.00;101124.38;4950928;29;20039;-66
2022/09/24 02:44:59;;;;;;;19.42;10.80;;;;;;;12.38;100.00;101107.72;4950712;29;20574;-66
2022/09/24 02:47:25;;;;;;;21.63;10.90;;;;;;;12.39;100.00;101109.38;4951022;29;20024;-66
2022/09/24 02:49:51;;;;;;;19.60;11.07;;;;;;;12.38;100.00;101101.53;4950890;28;20043;-66
2022/09/24 02:52:17;;;;;;;21.38;10.40;;;;;;;12.39;100.00;101103.19;4951003;29;20039;-66
2022/09/24 02:54:43;;;;;;;20.80;10.18;;;;;;;12.38;100.00;101102.38;4950972;29;20035;-66
2022/09/24 02:57:08;;;;;;;20.17;10.68;;;;;;;12.35;100.00;101096.59;4933743;28;20039;-66
2022/09/24 02:59:34;;;;;;;23.58;13.15;;;;;;;12.38;100.00;101098.88;4950799;29;20031;-66
2022/09/24 03:02:00;;;;;;;22.08;12.73;;;;;;;12.37;100.00;101099.91;4950875;29;20090;-66
2022/09/24 03:04:25;;;;;;;22.15;11.15;;;;;;;12.34;100.00;101097.63;4950799;29;20027;-66
2022/09/24 03:06:51;;;;;;;20.50;11.35;;;;;;;12.33;100.00;101094.13;4950768;29;20035;-66
2022/09/24 03:09:16;;;;;;;21.25;11.13;;;;;;;12.33;100.00;101088.78;4951070;29;20039;-66
2022/09/24 03:11:42;;;;;;;21.48;10.45;;;;;;;12.35;100.00;101101.97;4950491;28;20027;-66
2022/09/24 03:14:07;;;;;;;22.67;10.68;;;;;;;12.33;100.00;101098.66;4950542;28;20043;-66
2022/09/24 03:16:33;;;;;;;21.23;11.65;;;;;;;12.33;100.00;101101.31;4950559;29;20038;-65
2022/09/24 03:18:58;;;;;;;23.05;12.93;;;;;;;12.32;100.00;101097.84;4950612;29;20039;-65
2022/09/24 03:21:24;;;;;;;24.08;14.00;;;;;;;12.29;100.00;101092.88;4950512;28;20139;-66
2022/09/24 03:23:50;;;;;;;25.63;12.82;;;;;;;12.30;100.00;101091.84;4950626;29;20506;-65
2022/09/24 03:26:16;;;;;;;21.27;12.82;;;;;;;12.25;100.00;101081.75;4950475;29;20027;-65
2022/09/24 03:28:42;;;;;;;25.45;16.15;;;;;;;12.27;100.00;101090.41;4950654;29;20046;-66
2022/09/24 03:31:07;;;;;;;24.02;14.10;;;;;;;12.25;100.00;101084.44;4940832;29;20361;-66
2022/09/24 03:33:38;;;;;;;25.23;13.70;;;;;;;12.30;100.00;101091.03;4932297;29;20062;-66
2022/09/24 03:36:12;;;;;;;24.97;15.07;;;;;;;12.30;100.00;101083.00;4932282;29;20107;-66
2022/09/24 03:38:39;;;;;;;24.50;14.48;;;;;;;12.31;100.00;101084.66;4932356;29;20062;-66
2022/09/24 03:41:06;;;;;;;26.92;16.05;;;;;;;12.28;100.00;101081.34;4932076;29;20028;-66
2022/09/24 03:43:32;;;;;;;26.48;13.43;;;;;;;12.30;100.00;101085.69;4932171;29;20095;-66
2022/09/24 03:45:58;;;;;;;31.10;16.35;;;;;;;12.31;100.00;101081.97;4940168;29;20031;-65
2022/09/24 03:48:24;;;;;;;28.17;16.05;;;;;;;12.30;100.00;101078.47;4932005;29;20068;-66
2022/09/24 03:50:50;;;;;;;28.00;17.00;;;;;;;12.30;100.00;101083.00;4950277;29;20042;-66
2022/09/24 03:53:17;;;;;;;24.45;15.63;;;;;;;12.28;100.00;101077.84;4950509;29;20031;-66
2022/09/24 03:55:51;;;;;;;26.95;15.98;;;;;;;12.28;100.00;101078.66;4950352;29;20027;-66
2022/09/24 03:58:16;;;;;;;25.52;14.73;;;;;;;12.28;100.00;101072.50;4950526;29;20046;-65
2022/09/24 04:00:42;;;;;;;27.20;17.55;;;;;;;12.27;100.00;101074.34;4951683;28;20483;-66
2022/09/24 04:03:08;;;;;;;27.45;17.77;;;;;;;12.26;100.00;101071.88;4953940;29;20035;-66
2022/09/24 04:05:34;;;;;;;26.08;15.18;;;;;;;12.26;100.00;101072.72;4953542;29;20274;-65
2022/09/24 04:08:01;;;;;;;28.75;18.20;;;;;;;12.20;100.00;101060.16;4953263;29;20054;-66
2022/09/24 04:10:26;;;;;;;26.05;17.15;;;;;;;12.26;100.00;101067.38;4953761;28;20411;-66
2022/09/24 04:12:52;;;;;;;26.73;15.88;;;;;;;12.24;100.00;101060.59;4953643;29;20035;-66
2022/09/24 04:15:18;;;;;;;27.00;15.88;;;;;;;12.25;100.00;101060.38;4953360;28;20027;-65
2022/09/24 04:17:55;;;;;;;26.63;15.95;;;;;;;12.23;100.00;101048.22;4953656;29;20494;-66
2022/09/24 04:20:26;;;;;;;27.70;16.38;;;;;;;12.26;100.00;101056.69;4952835;29;20062;-65
2022/09/24 04:22:54;;;;;;;27.90;16.63;;;;;;;12.26;100.00;101048.66;4953626;29;20082;-65
2022/09/24 04:25:21;;;;;;;24.80;15.93;;;;;;;12.26;100.00;101056.69;4936281;29;20532;-66
2022/09/24 04:27:53;;;;;;;27.02;17.23;;;;;;;12.23;100.00;101046.34;4953402;29;20035;-66
2022/09/24 04:30:18;;;;;;;24.67;16.25;;;;;;;12.25;100.00;101047.00;4953356;29;20057;-65
2022/09/24 04:32:43;;;;;;;26.80;16.92;;;;;;;12.24;100.00;101036.50;4936092;29;20087;-66
2022/09/24 04:35:09;;;;;;;25.13;13.40;;;;;;;12.22;100.00;101043.91;4953150;28;20054;-66
2022/09/24 04:37:35;;;;;;;26.15;15.02;;;;;;;12.26;100.00;101048.66;4953280;28;20498;-66
2022/09/24 04:40:02;;;;;;;25.23;14.10;;;;;;;12.23;100.00;101046.34;4953147;29;20200;-66
2022/09/24 04:42:27;;;;;;;26.92;16.02;;;;;;;12.26;100.00;101045.13;4953233;29;20039;-66
2022/09/24 04:44:53;;;;;;;24.25;13.98;;;;;;;12.27;100.00;101047.63;4953208;29;20028;-66
2022/09/24 04:47:19;;;;;;;26.95;15.50;;;;;;;12.26;100.00;101045.97;4952854;28;20566;-66
2022/09/24 04:49:44;;;;;;;24.90;13.23;;;;;;;12.26;100.00;101050.47;4952757;28;20027;-66
2022/09/24 04:52:13;;;;;;;25.38;13.52;;;;;;;12.23;100.00;101042.88;4952737;29;20043;-66
2022/09/24 04:54:45;;;;;;;24.85;14.55;;;;;;;12.23;100.00;101051.72;4952977;28;20027;-66
2022/09/24 04:57:12;;;;;;;25.13;14.68;;;;;;;12.26;100.00;101053.16;4952960;29;20039;-69
2022/09/24 04:59:37;;;;;;;26.92;15.52;;;;;;;12.26;100.00;101053.16;4952909;29;20094;-70
2022/09/24 05:02:03;;;;;;;25.33;15.30;;;;;;;12.27;100.00;101055.63;4952835;29;20525;-69
2022/09/24 05:04:30;;;;;;;24.77;14.85;;;;;;;12.26;100.00;101054.00;4952752;28;20027;-70
2022/09/24 05:06:55;;;;;;;24.60;14.48;;;;;;;12.25;100.00;101055.00;4952631;28;20158;-69
2022/09/24 05:09:20;;;;;;;25.63;14.80;;;;;;;12.27;100.00;101050.28;4952098;29;20121;-69
2022/09/24 05:11:45;;;;;;;24.55;15.15;;;;;;;12.21;100.00;101045.75;4951578;28;20083;-69
2022/09/24 05:14:11;;;;;;;24.70;14.65;;;;;;;12.29;100.00;101060.81;4935299;29;20042;-69
2022/09/24 05:16:36;;;;;;;25.42;14.27;;;;;;;12.26;100.00;101055.84;4952170;28;20079;-69
2022/09/24 05:19:03;;;;;;;30.98;16.70;;;;;;;12.22;100.00;101044.72;4952320;28;20039;-69
2022/09/24 05:21:29;;;;;;;25.48;14.80;;;;;;;12.25;100.00;101057.69;4934970;29;20054;-69
2022/09/24 05:23:55;;;;;;;25.95;14.18;;;;;;;12.25;100.00;101049.66;4952444;29;20046;-69
2022/09/24 05:29:04;;;;;;;27.27;14.55;;;;;;;12.23;100.00;101054.38;4952523;28;20073;-69
2022/09/24 05:31:29;;;;;;;25.60;14.38;;;;;;;12.22;100.00;101057.28;4952260;29;20058;-69
2022/09/24 05:33:54;;;;;;;26.05;15.43;;;;;;;12.20;100.00;101062.00;4952241;29;20065;-69
2022/09/24 05:36:21;;;;;;;22.95;13.60;;;;;;;12.19;100.00;101061.19;4952319;28;20568;-69
2022/09/24 05:38:47;;;;;;;23.50;15.32;;;;;;;12.17;100.00;101059.72;4952069;29;20069;-69
2022/09/24 05:41:12;;;;;;;26.05;14.98;;;;;;;12.16;100.00;101058.91;4952102;28;20062;-68
2022/09/24 05:43:37;;;;;;;25.45;17.70;;;;;;;12.10;100.00;101051.69;4952043;29;20126;-68
2022/09/24 05:46:03;;;;;;;24.35;13.77;;;;;;;12.14;100.00;101060.97;4934345;28;20035;-68
2022/09/24 05:48:28;;;;;;;23.73;14.45;;;;;;;12.15;100.00;101065.28;4951684;29;20031;-68
2022/09/24 05:50:54;;;;;;;26.60;15.30;;;;;;;12.16;100.00;101072.28;4934646;29;20149;-66
2022/09/24 05:53:21;;;;;;;26.35;14.93;;;;;;;12.16;100.00;101066.13;4951832;29;20031;-65
2022/09/24 05:55:47;;;;;;;24.25;14.23;;;;;;;12.14;100.00;101062.81;4951758;29;20791;-66
2022/09/24 05:58:12;;;;;;;22.30;13.93;;;;;;;12.17;100.00;101073.91;4949464;29;20046;-65
2022/09/24 06:00:38;;;;;;;24.17;13.27;;;;;;;12.16;100.00;101072.28;4933300;29;20091;-66
2022/09/24 06:03:11;;;;;;;23.70;13.82;;;;;;;12.16;100.00;101074.97;4933329;29;20835;-65
2022/09/24 06:05:36;;;;;;;23.45;12.38;;;;;;;12.17;100.00;101075.78;4950608;29;20042;-66
2022/09/24 06:08:06;;;;;;;20.05;11.60;;;;;;;12.16;100.00;101074.97;4951271;29;21026;-66
2022/09/24 06:10:31;;;;;;;21.20;11.48;;;;;;;12.17;100.00;101075.78;4951008;29;20059;-66
2022/09/24 06:12:57;;;;;;;22.40;11.80;;;;;;;12.17;100.00;101078.44;4951393;29;20516;-66
2022/09/24 06:15:23;;;;;;;20.77;11.68;;;;;;;12.17;100.00;101073.09;4951472;29;20035;-66
2022/09/24 06:17:51;;;;;;;22.48;12.70;;;;;;;12.16;100.00;101079.50;4951228;29;20052;-66
2022/09/24 06:20:16;;;;;;;21.33;11.38;;;;;;;12.10;100.00;101074.94;4951103;28;20462;-65
2022/09/24 06:22:42;;;;;;;23.42;13.43;;;;;;;12.12;100.00;101079.03;4950952;28;20028;-66
2022/09/24 06:25:08;;;;;;;20.95;12.27;;;;;;;12.15;100.00;101080.50;4933975;29;20090;-65
2022/09/24 06:27:33;;;;;;;20.90;11.10;;;;;;;12.05;100.00;101065.69;4951138;28;20035;-66
2022/09/24 06:29:58;;;;;;;26.23;13.27;;;;;;;12.15;100.00;101084.00;4951071;29;20066;-66
2022/09/24 06:32:24;;;;;;;22.35;11.60;;;;;;;12.14;100.00;101085.03;4951345;29;20031;-65
2022/09/24 06:34:49;;;;;;;24.80;13.50;;;;;;;12.15;100.00;101080.50;4951225;29;20035;-65
2022/09/24 06:37:15;;;;;;;23.45;12.60;;;;;;;12.14;100.00;101082.34;4951336;29;20112;-66
2022/09/24 06:39:40;;;;;;;19.35;11.57;;;;;;;12.12;100.00;101083.56;4951087;29;20039;-65
2022/09/24 06:42:06;;;;;;;20.15;11.07;;;;;;;12.13;100.00;101088.72;4938419;29;20047;-66
2022/09/24 06:44:33;;;;;;;26.55;11.75;;;;;;;12.15;100.00;101092.00;4915505;29;20031;-66
2022/09/24 06:46:59;;;;;;;24.40;11.77;;;;;;;12.14;100.00;101086.88;4950730;29;20031;-66
2022/09/24 06:49:24;;;;;;;21.45;12.75;;;;;;;12.17;100.00;101092.63;4950893;29;20105;-65
2022/09/24 06:51:52;;;;;;;24.58;12.60;;;;;;;12.15;100.00;101092.00;4950736;28;20483;-65
2022/09/24 06:54:18;;;;;;;23.85;14.48;;;;;;;12.18;100.00;101094.31;4950823;29;20098;-65
2022/09/24 06:56:43;;;;;;;22.65;12.18;;;;;;;12.17;100.00;101087.28;4950948;28;20027;-65
2022/09/24 06:59:09;;;;;;;22.13;12.32;;;;;;;12.18;100.00;101093.47;4950846;29;20035;-65
2022/09/24 07:01:34;;;;;;;23.75;12.63;;;;;;;12.22;100.00;101102.75;4950782;29;20043;-65
2022/09/24 07:04:00;;;;;;;25.27;13.40;;;;;;;12.21;100.00;101096.56;4950600;29;20086;-65
2022/09/24 07:06:25;;;;;;;22.63;13.50;;;;;;;12.23;100.00;101104.38;4950697;28;20517;-65
2022/09/24 07:08:50;;;;;;;24.02;12.70;;;;;;;12.23;100.00;101102.53;4950346;29;20035;-66
2022/09/24 07:11:16;;;;;;;23.80;13.30;;;;;;;12.25;100.00;101105.81;4950310;29;20031;-66
2022/09/24 07:13:41;;;;;;;21.90;13.55;;;;;;;12.24;100.00;101106.03;4950376;29;20094;-66
2022/09/24 07:16:06;;;;;;;24.48;12.77;;;;;;;12.26;100.00;101104.81;4950751;29;20102;-65
2022/09/24 07:18:32;;;;;;;23.38;12.98;;;;;;;12.25;100.00;101111.16;4950711;29;20042;-65
2022/09/24 07:20:57;;;;;;;24.85;14.77;;;;;;;12.27;100.00;101116.34;4950328;29;20059;-65
2022/09/24 07:23:22;;;;;;;24.00;13.80;;;;;;;12.26;100.00;101118.19;4932444;29;20054;-66
2022/09/24 07:25:49;;;;;;;30.48;13.52;;;;;;;12.26;100.00;101112.00;4932275;29;20035;-66
2022/09/24 07:28:15;;;;;;;24.73;15.27;;;;;;;12.27;100.00;101119.00;4932307;29;20074;-65
2022/09/24 07:30:40;;;;;;;24.08;14.05;;;;;;;12.26;100.00;101120.00;4950486;29;20058;-65
2022/09/24 07:33:06;;;;;;;25.10;15.25;;;;;;;12.25;100.00;101116.53;4950542;29;20090;-66
2022/09/24 07:35:32;;;;;;;26.40;15.55;;;;;;;12.24;100.00;101112.22;4951651;28;20531;-65
2022/09/24 07:38:10;;;;;;;24.83;15.68;;;;;;;12.26;100.00;101126.22;4954058;29;20035;-65
2022/09/24 07:40:36;;;;;;;25.05;15.20;;;;;;;12.21;100.00;101117.97;4954006;28;20034;-65
2022/09/24 07:43:01;;;;;;;26.27;15.38;;;;;;;12.25;100.00;101124.53;4954305;29;20398;-65
2022/09/24 07:45:28;;;;;;;23.70;14.40;;;;;;;12.25;100.00;101124.53;4954164;29;20125;-65
2022/09/24 07:48:02;;;;;;;24.70;14.10;;;;;;;12.25;100.00;101123.72;4954060;29;20110;-65
2022/09/24 07:50:30;;;;;;;27.92;15.20;;;;;;;12.27;100.00;101124.34;4953607;29;20483;-65
2022/09/24 07:52:56;;;;;;;25.60;16.05;;;;;;;12.24;100.00;101119.41;4954038;29;20058;-65
2022/09/24 07:55:22;;;;;;;27.88;16.10;;;;;;;12.25;100.00;101132.56;4953822;28;20441;-65
2022/09/24 07:57:48;;;;;;;27.50;17.67;;;;;;;12.28;100.00;101134.00;4953874;28;20043;-65
2022/09/24 08:00:16;;;;;;;26.90;17.30;;;;;;;12.29;100.00;101135.69;4953498;29;20066;-65
2022/09/24 08:02:42;;;;;;;28.17;16.52;;;;;;;12.31;100.00;101138.13;4953872;29;20035;-65
2022/09/24 08:05:09;;;;;;;24.58;15.27;;;;;;;12.31;100.00;101141.63;4953815;29;20035;-65
2022/09/24 08:07:34;;;;;;;26.70;16.08;;;;;;;12.31;100.00;101132.78;4953885;29;20058;-65
2022/09/24 08:10:00;;;;;;;27.10;15.02;;;;;;;12.27;100.00;101138.53;4953588;29;20059;-65
2022/09/24 08:12:26;;;;;;;24.08;15.00;;;;;;;12.28;100.00;101147.38;4953835;29;20553;-66
2022/09/24 08:14:52;;;;;;;27.27;16.65;;;;;;;12.31;100.00;101149.66;4934859;29;20126;-66
2022/09/24 08:17:17;;;;;;;28.35;16.98;;;;;;;12.32;100.00;101154.00;4935218;29;20123;-66
2022/09/24 08:19:45;;;;;;;27.10;16.38;;;;;;;12.34;100.00;101156.44;4935072;29;20181;-65
2022/09/24 08:22:13;;;;;;;28.05;15.60;;;;;;;12.34;100.00;101157.31;4934784;29;20036;-65
2022/09/24 08:24:38;;;;;;;23.10;14.35;;;;;;;12.35;100.00;101150.09;4934996;29;20094;-65
2022/09/24 08:27:04;;;;;;;26.23;17.13;;;;;;;12.35;100.00;101150.09;4935020;29;20040;-65
2022/09/24 08:29:29;;;;;;;28.02;17.90;;;;;;;12.34;100.00;101151.09;4936757;29;20032;-65
2022/09/24 08:31:54;;;;;;;25.40;14.57;;;;;;;12.34;100.00;101156.44;4933809;29;20075;-65
2022/09/24 08:34:20;;;;;;;27.55;16.90;;;;;;;12.33;100.00;101152.16;4953174;29;20036;-65
2022/09/24 08:36:45;;;;;;;24.02;14.20;;;;;;;12.36;100.00;101157.91;4944390;29;20032;-65
2022/09/24 08:39:12;;;;;;;25.67;16.35;;;;;;;12.31;100.00;101146.16;4934823;29;20054;-65
2022/09/24 08:41:56;;;;;;;24.50;14.55;;;;;;;12.38;100.00;101160.38;4934805;29;20046;-65
2022/09/24 08:47:22;;;;;;;26.30;16.20;;;;;;;12.39;100.00;101168.22;4952694;28;20510;-65
2022/09/24 08:49:54;;;;;;;26.42;15.45;;;;;;;12.35;100.00;101160.78;4952948;28;20070;-65
2022/09/24 08:53:05;;;;;;;25.42;15.05;;;;;;;12.39;100.00;101167.38;4952608;29;20035;-65
2022/09/24 08:55:32;;;;;;;23.77;13.35;;;;;;;12.40;100.00;101171.72;4875076;29;20123;-65
2022/09/24 08:58:21;;;;;;;24.23;13.15;;;;;;;12.42;100.00;101167.00;4874985;29;20041;-65
2022/09/24 09:00:53;;;;;;;27.40;14.75;;;;;;;12.40;100.00;101161.03;4915224;29;20043;-65
2022/09/24 09:03:21;;;;;;;22.75;14.25;;;;;;;12.45;100.00;101177.28;4934417;29;20043;-65
2022/09/24 09:05:54;;;;;;;25.33;15.60;;;;;;;12.47;100.00;101173.41;4934407;28;20024;-65
2022/09/24 09:08:39;;;;;;;23.42;13.90;;;;;;;12.49;100.00;101174.00;4933857;29;20039;-65
2022/09/24 09:11:08;;;;;;;22.60;13.40;;;;;;;12.53;100.00;101177.09;4934277;29;20031;-65
2022/09/24 09:13:51;;;;;;;23.92;12.82;;;;;;;12.55;100.00;101187.59;4934302;29;20066;-65
2022/09/24 09:16:32;;;;;;;24.65;14.32;;;;;;;12.58;100.00;101181.88;4952219;29;20085;-65
2022/09/24 09:19:05;;;;;;;23.30;14.27;;;;;;;12.58;100.00;101180.00;4934098;29;20094;-65
2022/09/24 09:21:42;;;;;;;25.05;14.32;;;;;;;12.61;100.00;101182.28;4933897;29;20519;-64
2022/09/24 09:24:17;;;;;;;24.00;13.73;;;;;;;12.65;100.00;101185.34;4933417;29;20158;-65
2022/09/24 09:26:47;;;;;;;24.45;14.57;;;;;;;12.65;100.00;101183.53;4934742;29;20721;-66
2022/09/24 09:29:13;;;;;;;24.52;14.40;;;;;;;12.70;100.00;101190.94;4938888;28;20050;-66
2022/09/24 09:31:54;;;;;;;24.48;13.85;;;;;;;12.70;100.00;101188.25;4919757;28;20183;-66
2022/09/24 09:34:34;;;;;;;25.67;14.85;;;;;;;12.75;100.00;101190.34;4937284;28;20086;-66
2022/09/24 09:37:25;;;;;;;32.50;16.83;;;;;;;12.80;100.00;101187.88;4938626;28;20174;-66
2022/09/24 09:40:16;;;;;;;23.35;14.07;;;;;;;12.82;100.00;101192.00;4937478;28;20122;-64
2022/09/24 09:42:44;;;;;;;24.30;13.68;;;;;;;12.85;100.00;101188.09;4937706;28;20046;-65
2022/09/24 09:45:24;;;;;;;24.63;13.98;;;;;;;12.86;100.00;101181.69;4938952;28;20062;-67
2022/09/24 09:47:54;;;;;;;23.08;14.40;;;;;;;12.89;100.00;101183.97;4936745;28;20020;-65
2022/09/24 09:50:34;;;;;;;28.77;16.50;;;;;;;12.90;100.00;101186.44;4937163;28;20028;-66
2022/09/24 09:53:01;;;;;;;24.77;15.52;;;;;;;12.96;100.00;101187.47;4936462;28;20023;-66
2022/09/24 09:55:30;;;;;;;28.67;15.95;;;;;;;12.97;100.00;101186.47;4937676;28;21320;-65
2022/09/24 09:58:24;;;;;;;24.08;13.93;;;;;;;13.02;100.00;101186.69;4935848;28;20015;-64
2022/09/24 10:00:50;;;;;;;25.15;15.38;;;;;;;13.02;100.00;101193.88;4934167;28;20042;-66
2022/09/24 10:03:25;;;;;;;23.10;13.85;;;;;;;13.05;100.00;101193.50;4937344;28;20095;-66
2022/09/24 10:05:53;;;;;;;25.48;14.18;;;;;;;13.06;100.00;101187.09;4936874;28;20559;-65
2022/09/24 10:08:24;;;;;;;26.98;15.00;;;;;;;13.13;100.00;101196.78;4936166;28;20035;-65
2022/09/24 10:11:00;;;;;;;24.65;15.10;;;;;;;13.11;100.00;101187.31;4936204;28;20038;-65
2022/09/24 10:13:26;;;;;;;21.73;13.35;;;;;;;13.18;100.00;101198.84;4936763;28;20383;-65
2022/09/24 10:15:51;;;;;;;23.95;14.85;;;;;;;13.19;100.00;101189.78;4937002;28;20019;-66
2022/09/24 10:18:27;;;;;;;26.77;14.20;;;;;;;13.19;100.00;101192.44;4935310;28;20677;-66
2022/09/24 10:20:54;;;;;;;27.65;15.02;;;;;;;13.22;100.00;101193.91;4937014;28;20346;-65
2022/09/24 10:23:25;;;;;;;24.88;14.38;;;;;;;13.20;100.00;101180.69;4936731;28;20043;-66
2022/09/24 10:25:58;;;;;;;22.63;13.55;;;;;;;13.23;100.00;101183.00;4936851;28;20035;-65
2022/09/24 10:31:17;;;;;;;24.35;14.43;;;;;;;13.30;100.00;101180.31;4936049;28;20075;-66
2022/09/24 10:33:46;;;;;;;23.98;14.27;;;;;;;13.31;100.00;101182.00;4936874;28;20608;-66
2022/09/24 10:36:28;;;;;;;22.88;13.93;;;;;;;13.35;100.00;101186.72;4936618;28;20054;-65
2022/09/24 10:39:20;;;;;;;23.30;13.80;;;;;;;13.40;100.00;101190.63;4936521;28;20035;-66
2022/09/24 10:41:56;;;;;;;23.50;13.80;;;;;;;13.41;100.00;101187.72;4932841;28;20070;-65
2022/09/24 10:44:22;;;;;;;23.10;12.85;;;;;;;13.42;100.00;101191.25;4936386;28;20059;-65
2022/09/24 10:46:59;;;;;;;24.50;14.27;;;;;;;13.43;100.00;101192.91;4936394;28;20039;-65
2022/09/24 10:49:53;;;;;;;22.83;13.05;;;;;;;13.46;100.00;101195.97;4936177;28;20046;-65
2022/09/24 10:52:52;;;;;;;25.00;13.82;;;;;;;13.46;100.00;101190.63;4933055;28;20043;-65
2022/09/24 10:55:46;;;;;;;25.73;14.75;;;;;;;13.50;100.00;101196.41;4932331;29;20034;-65
2022/09/24 10:58:24;;;;;;;24.20;14.00;;;;;;;13.52;100.00;101192.47;4950901;29;20098;-65
2022/09/24 11:01:06;;;;;;;24.65;13.70;;;;;;;13.56;100.00;101193.69;4950978;29;20037;-65
2022/09/24 11:03:59;;;;;;;22.83;12.65;;;;;;;13.60;100.00;101194.13;4950818;29;20490;-65
2022/09/24 11:06:27;;;;;;;23.08;13.50;;;;;;;13.65;100.00;101196.16;4950868;29;20428;-66
2022/09/24 11:08:58;;;;;;;24.40;14.20;;;;;;;13.63;100.00;101206.28;4950960;28;20039;-66
2022/09/24 11:11:34;;;;;;;21.27;13.67;;;;;;;13.62;100.00;101202.75;4954986;29;20540;-66
2022/09/24 11:14:02;;;;;;;27.13;15.90;;;;;;;13.61;100.00;101200.31;4954792;29;20285;-66
2022/09/24 11:16:33;;;;;;;24.88;14.45;;;;;;;13.63;100.00;101209.78;4954641;28;20027;-66
2022/09/24 11:19:10;;;;;;;25.87;14.47;;;;;;;13.67;100.00;101205.63;4954674;29;20038;-66
2022/09/24 11:22:02;;;;;;;26.13;13.75;;;;;;;13.70;100.00;101213.28;4954763;28;20298;-63
2022/09/24 11:25:04;;;;;;;23.02;12.65;;;;;;;13.74;100.00;101213.69;4954696;29;20386;-63
2022/09/24 11:27:39;;;;;;;23.15;14.20;;;;;;;13.75;100.00;101218.00;4951099;29;20133;-63